sensor_id;sensor_type;location;lat;lon;timestamp;pressure;altitude;pressure_sealevel;temperature;humidity
72570;BME280;60594;50.204;8.844;2022-07-10T00:00:30;100732.66;;;15.58;74.68
72570;BME280;60594;50.204;8.844;2022-07-10T00:03:04;100724.59;;;15.58;74.29
72570;BME280;60594;50.204;8.844;2022-07-10T00:05:31;100729.38;;;15.45;74.46
72570;BME280;60594;50.204;8.844;2022-07-10T00:08:00;100727.16;;;15.41;74.78
72570;BME280;60594;50.204;8.844;2022-07-10T00:10:27;100733.22;;;15.52;73.70
72570;BME280;60594;50.204;8.844;2022-07-10T00:12:55;100732.34;;;15.33;74.71
72570;BME280;60594;50.204;8.844;2022-07-10T00:15:21;100719.88;;;15.13;75.42
72570;BME280;60594;50.204;8.844;2022-07-10T00:17:48;100730.63;;;15.22;75.15
72570;BME280;60594;50.204;8.844;2022-07-10T00:20:15;100728.91;;;15.12;74.95
72570;BME280;60594;50.204;8.844;2022-07-10T00:22:42;100734.31;;;15.21;74.59
72570;BME280;60594;50.204;8.844;2022-07-10T00:25:10;100733.75;;;15.27;73.45
72570;BME280;60594;50.204;8.844;2022-07-10T00:27:38;100726.94;;;15.23;74.16
72570;BME280;60594;50.204;8.844;2022-07-10T00:30:05;100723.53;;;15.12;74.34
72570;BME280;60594;50.204;8.844;2022-07-10T00:32:32;100720.56;;;15.05;74.61
72570;BME280;60594;50.204;8.844;2022-07-10T00:34:59;100718.16;;;14.93;75.21
72570;BME280;60594;50.204;8.844;2022-07-10T00:37:26;100736.81;;;15.04;74.65
72570;BME280;60594;50.204;8.844;2022-07-10T00:39:52;100727.38;;;14.70;75.25
72570;BME280;60594;50.204;8.844;2022-07-10T00:42:19;100743.06;;;14.74;75.75
72570;BME280;60594;50.204;8.844;2022-07-10T00:44:45;100741.34;;;14.64;75.77
72570;BME280;60594;50.204;8.844;2022-07-10T00:47:12;100753.75;;;14.55;76.03
72570;BME280;60594;50.204;8.844;2022-07-10T00:49:40;100759.84;;;14.57;75.85
72570;BME280;60594;50.204;8.844;2022-07-10T00:52:08;100763.03;;;14.51;76.72
72570;BME280;60594;50.204;8.844;2022-07-10T00:54:36;100758.28;;;14.64;75.83
72570;BME280;60594;50.204;8.844;2022-07-10T00:57:04;100753.59;;;14.57;75.72
72570;BME280;60594;50.204;8.844;2022-07-10T00:59:32;100752.75;;;14.56;76.11
72570;BME280;60594;50.204;8.844;2022-07-10T01:01:58;100762.38;;;14.68;75.79
72570;BME280;60594;50.204;8.844;2022-07-10T01:04:25;100745.22;;;14.41;76.24
72570;BME280;60594;50.204;8.844;2022-07-10T01:06:52;100754.91;;;14.62;75.87
72570;BME280;60594;50.204;8.844;2022-07-10T01:09:19;100757.91;;;14.39;77.06
72570;BME280;60594;50.204;8.844;2022-07-10T01:11:46;100747.72;;;14.42;76.56
72570;BME280;60594;50.204;8.844;2022-07-10T01:14:15;100752.78;;;14.36;77.07
72570;BME280;60594;50.204;8.844;2022-07-10T01:16:42;100750.41;;;14.63;75.97
72570;BME280;60594;50.204;8.844;2022-07-10T01:19:08;100754.91;;;14.62;76.02
72570;BME280;60594;50.204;8.844;2022-07-10T01:21:36;100755.81;;;14.72;75.63
72570;BME280;60594;50.204;8.844;2022-07-10T01:24:05;100753.84;;;14.84;75.05
72570;BME280;60594;50.204;8.844;2022-07-10T01:26:33;100758.06;;;14.77;75.29
72570;BME280;60594;50.204;8.844;2022-07-10T01:29:03;100749.59;;;14.81;75.49
72570;BME280;60594;50.204;8.844;2022-07-10T01:31:29;100744.97;;;14.83;74.27
72570;BME280;60594;50.204;8.844;2022-07-10T01:33:56;100750.00;;;14.77;75.10
72570;BME280;60594;50.204;8.844;2022-07-10T01:36:23;100752.13;;;14.73;74.99
72570;BME280;60594;50.204;8.844;2022-07-10T01:38:54;100752.31;;;14.51;76.13
72570;BME280;60594;50.204;8.844;2022-07-10T01:41:21;100753.91;;;14.63;75.45
72570;BME280;60594;50.204;8.844;2022-07-10T01:43:48;100762.09;;;14.62;75.65
72570;BME280;60594;50.204;8.844;2022-07-10T01:46:15;100756.59;;;14.63;75.03
72570;BME280;60594;50.204;8.844;2022-07-10T01:48:42;100745.78;;;14.44;75.07
72570;BME280;60594;50.204;8.844;2022-07-10T01:51:13;100744.41;;;14.50;74.06
72570;BME280;60594;50.204;8.844;2022-07-10T01:53:39;100755.19;;;14.69;73.12
72570;BME280;60594;50.204;8.844;2022-07-10T01:56:11;100754.06;;;14.71;73.00
72570;BME280;60594;50.204;8.844;2022-07-10T01:58:38;100760.00;;;14.65;73.65
72570;BME280;60594;50.204;8.844;2022-07-10T02:01:05;100763.59;;;14.55;73.46
72570;BME280;60594;50.204;8.844;2022-07-10T02:03:32;100768.84;;;14.56;73.32
72570;BME280;60594;50.204;8.844;2022-07-10T02:06:18;100762.50;;;14.57;73.74
72570;BME280;60594;50.204;8.844;2022-07-10T02:08:45;100759.06;;;14.46;74.54
72570;BME280;60594;50.204;8.844;2022-07-10T02:11:11;100765.91;;;14.59;73.34
72570;BME280;60594;50.204;8.844;2022-07-10T02:13:39;100751.16;;;14.44;72.90
72570;BME280;60594;50.204;8.844;2022-07-10T02:16:05;100743.38;;;14.41;73.18
72570;BME280;60594;50.204;8.844;2022-07-10T02:18:32;100755.88;;;14.31;72.88
72570;BME280;60594;50.204;8.844;2022-07-10T02:20:58;100754.81;;;14.43;72.52
72570;BME280;60594;50.204;8.844;2022-07-10T02:23:25;100755.69;;;14.53;72.38
72570;BME280;60594;50.204;8.844;2022-07-10T02:25:51;100758.25;;;14.55;71.92
72570;BME280;60594;50.204;8.844;2022-07-10T02:28:18;100749.31;;;14.45;72.24
72570;BME280;60594;50.204;8.844;2022-07-10T02:30:45;100741.75;;;14.59;71.85
72570;BME280;60594;50.204;8.844;2022-07-10T02:33:11;100733.44;;;14.62;71.47
72570;BME280;60594;50.204;8.844;2022-07-10T02:35:38;100740.19;;;14.57;72.15
72570;BME280;60594;50.204;8.844;2022-07-10T02:38:04;100741.84;;;14.48;72.62
72570;BME280;60594;50.204;8.844;2022-07-10T02:40:31;100743.19;;;14.33;73.26
72570;BME280;60594;50.204;8.844;2022-07-10T02:42:57;100754.09;;;14.41;73.58
72570;BME280;60594;50.204;8.844;2022-07-10T02:45:24;100743.22;;;14.43;73.82
72570;BME280;60594;50.204;8.844;2022-07-10T02:47:50;100733.44;;;14.12;74.53
72570;BME280;60594;50.204;8.844;2022-07-10T02:50:17;100730.47;;;14.15;74.74
72570;BME280;60594;50.204;8.844;2022-07-10T02:52:43;100739.59;;;14.03;75.01
72570;BME280;60594;50.204;8.844;2022-07-10T02:55:09;100750.63;;;14.09;75.50
72570;BME280;60594;50.204;8.844;2022-07-10T02:57:36;100746.25;;;14.08;75.09
72570;BME280;60594;50.204;8.844;2022-07-10T03:00:03;100748.72;;;14.21;74.98
72570;BME280;60594;50.204;8.844;2022-07-10T03:02:29;100761.50;;;14.28;74.44
72570;BME280;60594;50.204;8.844;2022-07-10T03:04:56;100751.19;;;14.24;75.25
72570;BME280;60594;50.204;8.844;2022-07-10T03:07:22;100745.69;;;14.25;74.52
72570;BME280;60594;50.204;8.844;2022-07-10T03:09:49;100733.75;;;14.18;73.25
72570;BME280;60594;50.204;8.844;2022-07-10T03:12:15;100765.31;;;14.15;74.44
72570;BME280;60594;50.204;8.844;2022-07-10T03:14:41;100761.03;;;14.03;74.89
72570;BME280;60594;50.204;8.844;2022-07-10T03:17:08;100753.41;;;13.66;76.29
72570;BME280;60594;50.204;8.844;2022-07-10T03:19:35;100752.06;;;13.72;76.75
72570;BME280;60594;50.204;8.844;2022-07-10T03:22:01;100752.78;;;13.95;74.83
72570;BME280;60594;50.204;8.844;2022-07-10T03:24:27;100761.28;;;14.00;74.80
72570;BME280;60594;50.204;8.844;2022-07-10T03:26:54;100744.75;;;13.95;74.60
72570;BME280;60594;50.204;8.844;2022-07-10T03:29:20;100759.59;;;13.99;75.09
72570;BME280;60594;50.204;8.844;2022-07-10T03:31:47;100755.91;;;14.00;73.85
72570;BME280;60594;50.204;8.844;2022-07-10T03:34:14;100761.81;;;13.94;74.26
72570;BME280;60594;50.204;8.844;2022-07-10T03:36:40;100766.31;;;13.93;73.41
72570;BME280;60594;50.204;8.844;2022-07-10T03:39:06;100771.53;;;13.74;74.61
72570;BME280;60594;50.204;8.844;2022-07-10T03:41:33;100773.59;;;13.82;73.88
72570;BME280;60594;50.204;8.844;2022-07-10T03:44:00;100772.72;;;13.81;74.31
72570;BME280;60594;50.204;8.844;2022-07-10T03:46:26;100765.69;;;13.80;74.41
72570;BME280;60594;50.204;8.844;2022-07-10T03:48:52;100773.72;;;13.80;74.59
72570;BME280;60594;50.204;8.844;2022-07-10T03:51:19;100773.47;;;13.72;74.61
72570;BME280;60594;50.204;8.844;2022-07-10T03:53:45;100770.16;;;13.59;74.86
72570;BME280;60594;50.204;8.844;2022-07-10T03:56:11;100772.13;;;13.46;75.28
72570;BME280;60594;50.204;8.844;2022-07-10T03:58:58;100755.41;;;13.33;75.67
72570;BME280;60594;50.204;8.844;2022-07-10T04:01:24;100772.78;;;13.38;75.62
72570;BME280;60594;50.204;8.844;2022-07-10T04:03:51;100758.50;;;12.95;76.54
72570;BME280;60594;50.204;8.844;2022-07-10T04:06:17;100759.97;;;12.99;77.15
72570;BME280;60594;50.204;8.844;2022-07-10T04:08:43;100752.69;;;13.01;75.75
72570;BME280;60594;50.204;8.844;2022-07-10T04:11:10;100758.72;;;13.14;75.22
72570;BME280;60594;50.204;8.844;2022-07-10T04:13:36;100776.09;;;13.20;75.15
72570;BME280;60594;50.204;8.844;2022-07-10T04:16:03;100771.41;;;13.12;76.18
72570;BME280;60594;50.204;8.844;2022-07-10T04:18:29;100772.97;;;13.15;75.58
72570;BME280;60594;50.204;8.844;2022-07-10T04:20:56;100776.09;;;13.20;76.58
72570;BME280;60594;50.204;8.844;2022-07-10T04:23:22;100773.81;;;13.26;74.59
72570;BME280;60594;50.204;8.844;2022-07-10T04:25:49;100771.94;;;13.27;74.98
72570;BME280;60594;50.204;8.844;2022-07-10T04:28:15;100774.03;;;13.34;75.63
72570;BME280;60594;50.204;8.844;2022-07-10T04:30:42;100789.31;;;13.43;73.67
72570;BME280;60594;50.204;8.844;2022-07-10T04:33:08;100779.84;;;13.39;74.03
72570;BME280;60594;50.204;8.844;2022-07-10T04:35:34;100773.50;;;13.40;74.03
72570;BME280;60594;50.204;8.844;2022-07-10T04:38:01;100781.16;;;13.45;73.98
72570;BME280;60594;50.204;8.844;2022-07-10T04:40:27;100779.66;;;13.52;73.69
72570;BME280;60594;50.204;8.844;2022-07-10T04:42:54;100799.38;;;13.62;72.95
72570;BME280;60594;50.204;8.844;2022-07-10T04:45:20;100788.28;;;13.55;73.46
72570;BME280;60594;50.204;8.844;2022-07-10T04:47:47;100802.63;;;13.65;74.30
72570;BME280;60594;50.204;8.844;2022-07-10T04:50:13;100803.19;;;13.80;72.89
72570;BME280;60594;50.204;8.844;2022-07-10T04:52:40;100785.81;;;13.75;73.96
72570;BME280;60594;50.204;8.844;2022-07-10T04:55:06;100790.81;;;13.89;73.58
72570;BME280;60594;50.204;8.844;2022-07-10T04:57:33;100799.22;;;13.95;72.43
72570;BME280;60594;50.204;8.844;2022-07-10T05:00:01;100787.19;;;13.90;71.39
72570;BME280;60594;50.204;8.844;2022-07-10T05:02:28;100785.63;;;13.87;71.72
72570;BME280;60594;50.204;8.844;2022-07-10T05:04:54;100793.44;;;14.00;71.23
72570;BME280;60594;50.204;8.844;2022-07-10T05:07:21;100795.28;;;13.99;70.26
72570;BME280;60594;50.204;8.844;2022-07-10T05:09:47;100797.56;;;14.04;70.77
72570;BME280;60594;50.204;8.844;2022-07-10T05:12:13;100808.38;;;14.13;70.75
72570;BME280;60594;50.204;8.844;2022-07-10T05:14:40;100803.34;;;14.20;70.00
72570;BME280;60594;50.204;8.844;2022-07-10T05:17:06;100797.84;;;14.21;70.99
72570;BME280;60594;50.204;8.844;2022-07-10T05:19:33;100786.38;;;14.19;69.82
72570;BME280;60594;50.204;8.844;2022-07-10T05:21:59;100791.63;;;14.21;71.12
72570;BME280;60594;50.204;8.844;2022-07-10T05:24:25;100815.16;;;14.28;71.56
72570;BME280;60594;50.204;8.844;2022-07-10T05:26:52;100789.28;;;14.27;69.55
72570;BME280;60594;50.204;8.844;2022-07-10T05:29:18;100791.84;;;14.29;68.23
72570;BME280;60594;50.204;8.844;2022-07-10T05:31:45;100801.91;;;14.36;66.23
72570;BME280;60594;50.204;8.844;2022-07-10T05:34:11;100798.63;;;14.33;66.38
72570;BME280;60594;50.204;8.844;2022-07-10T05:36:38;100809.09;;;14.36;66.94
72570;BME280;60594;50.204;8.844;2022-07-10T05:39:04;100795.06;;;14.23;67.18
72570;BME280;60594;50.204;8.844;2022-07-10T05:41:31;100814.72;;;14.33;65.44
72570;BME280;60594;50.204;8.844;2022-07-10T05:43:59;100815.28;;;14.27;65.54
72570;BME280;60594;50.204;8.844;2022-07-10T05:46:26;100808.56;;;14.21;65.41
72570;BME280;60594;50.204;8.844;2022-07-10T05:48:53;100811.50;;;14.18;65.19
72570;BME280;60594;50.204;8.844;2022-07-10T05:51:20;100815.66;;;14.22;66.14
72570;BME280;60594;50.204;8.844;2022-07-10T05:53:46;100828.13;;;14.33;65.23
72570;BME280;60594;50.204;8.844;2022-07-10T05:56:13;100827.19;;;14.34;64.95
72570;BME280;60594;50.204;8.844;2022-07-10T05:58:40;100817.94;;;14.27;65.28
72570;BME280;60594;50.204;8.844;2022-07-10T06:01:08;100830.88;;;14.42;64.72
72570;BME280;60594;50.204;8.844;2022-07-10T06:03:35;100839.72;;;14.54;63.59
72570;BME280;60594;50.204;8.844;2022-07-10T06:06:01;100829.03;;;14.63;64.16
72570;BME280;60594;50.204;8.844;2022-07-10T06:08:28;100835.81;;;14.67;63.39
72570;BME280;60594;50.204;8.844;2022-07-10T06:10:55;100834.03;;;14.77;62.92
72570;BME280;60594;50.204;8.844;2022-07-10T06:13:22;100820.59;;;14.68;64.48
72570;BME280;60594;50.204;8.844;2022-07-10T06:15:49;100843.31;;;14.94;62.61
72570;BME280;60594;50.204;8.844;2022-07-10T06:18:15;100815.31;;;14.87;62.53
72570;BME280;60594;50.204;8.844;2022-07-10T06:20:42;100842.34;;;15.04;61.61
72570;BME280;60594;50.204;8.844;2022-07-10T06:23:08;100838.97;;;15.02;61.23
72570;BME280;60594;50.204;8.844;2022-07-10T06:25:34;100827.38;;;15.02;60.16
72570;BME280;60594;50.204;8.844;2022-07-10T06:28:01;100825.41;;;15.04;60.84
72570;BME280;60594;50.204;8.844;2022-07-10T06:30:28;100838.88;;;15.13;61.46
72570;BME280;60594;50.204;8.844;2022-07-10T06:32:54;100833.91;;;15.09;62.43
72570;BME280;60594;50.204;8.844;2022-07-10T06:35:21;100837.47;;;15.19;60.71
72570;BME280;60594;50.204;8.844;2022-07-10T06:37:48;100827.00;;;15.16;61.39
72570;BME280;60594;50.204;8.844;2022-07-10T06:40:15;100832.78;;;15.21;61.91
72570;BME280;60594;50.204;8.844;2022-07-10T06:42:42;100841.88;;;15.29;60.18
72570;BME280;60594;50.204;8.844;2022-07-10T06:45:11;100825.34;;;15.24;60.08
72570;BME280;60594;50.204;8.844;2022-07-10T06:47:39;100843.78;;;15.38;59.62
72570;BME280;60594;50.204;8.844;2022-07-10T06:50:27;100827.38;;;15.41;58.69
72570;BME280;60594;50.204;8.844;2022-07-10T06:52:57;100823.13;;;15.39;60.07
72570;BME280;60594;50.204;8.844;2022-07-10T06:55:24;100828.81;;;15.55;59.89
72570;BME280;60594;50.204;8.844;2022-07-10T06:57:52;100835.63;;;15.68;57.65
72570;BME280;60594;50.204;8.844;2022-07-10T07:00:20;100819.66;;;15.67;57.51
72570;BME280;60594;50.204;8.844;2022-07-10T07:02:46;100828.53;;;15.77;58.64
72570;BME280;60594;50.204;8.844;2022-07-10T07:05:13;100802.38;;;15.69;57.27
72570;BME280;60594;50.204;8.844;2022-07-10T07:07:40;100827.72;;;15.86;56.79
72570;BME280;60594;50.204;8.844;2022-07-10T07:10:08;100826.59;;;15.88;57.33
72570;BME280;60594;50.204;8.844;2022-07-10T07:12:35;100833.81;;;15.97;57.47
72570;BME280;60594;50.204;8.844;2022-07-10T07:15:02;100820.66;;;15.94;58.23
72570;BME280;60594;50.204;8.844;2022-07-10T07:17:29;100826.31;;;16.01;57.57
72570;BME280;60594;50.204;8.844;2022-07-10T07:20:12;100831.25;;;15.96;56.98
72570;BME280;60594;50.204;8.844;2022-07-10T07:22:57;100838.75;;;16.02;56.73
72570;BME280;60594;50.204;8.844;2022-07-10T07:25:37;100820.91;;;16.01;55.60
72570;BME280;60594;50.204;8.844;2022-07-10T07:28:06;100837.19;;;16.09;56.45
72570;BME280;60594;50.204;8.844;2022-07-10T07:30:32;100832.38;;;16.12;55.50
72570;BME280;60594;50.204;8.844;2022-07-10T07:32:59;100839.06;;;16.08;53.92
72570;BME280;60594;50.204;8.844;2022-07-10T07:35:26;100841.88;;;16.07;55.99
72570;BME280;60594;50.204;8.844;2022-07-10T07:37:53;100828.72;;;15.94;54.55
72570;BME280;60594;50.204;8.844;2022-07-10T07:40:21;100828.00;;;15.92;54.95
72570;BME280;60594;50.204;8.844;2022-07-10T07:42:54;100839.03;;;15.89;57.38
72570;BME280;60594;50.204;8.844;2022-07-10T07:45:24;100839.06;;;16.08;57.22
72570;BME280;60594;50.204;8.844;2022-07-10T07:47:56;100842.00;;;16.24;55.68
72570;BME280;60594;50.204;8.844;2022-07-10T07:50:26;100815.78;;;16.26;55.44
72570;BME280;60594;50.204;8.844;2022-07-10T07:52:53;100821.91;;;16.19;54.98
72570;BME280;60594;50.204;8.844;2022-07-10T07:55:20;100833.22;;;16.22;55.92
72570;BME280;60594;50.204;8.844;2022-07-10T07:57:50;100838.19;;;16.17;55.76
72570;BME280;60594;50.204;8.844;2022-07-10T08:00:18;100826.72;;;16.06;56.02
72570;BME280;60594;50.204;8.844;2022-07-10T08:02:44;100838.47;;;16.05;55.51
72570;BME280;60594;50.204;8.844;2022-07-10T08:05:11;100839.31;;;16.05;55.86
72570;BME280;60594;50.204;8.844;2022-07-10T08:07:40;100836.34;;;16.08;56.69
72570;BME280;60594;50.204;8.844;2022-07-10T08:10:15;100823.72;;;16.18;56.37
72570;BME280;60594;50.204;8.844;2022-07-10T08:12:43;100824.56;;;16.28;54.57
72570;BME280;60594;50.204;8.844;2022-07-10T08:15:13;100836.03;;;16.30;55.23
72570;BME280;60594;50.204;8.844;2022-07-10T08:17:40;100831.25;;;16.24;55.37
72570;BME280;60594;50.204;8.844;2022-07-10T08:20:10;100841.72;;;16.27;57.43
72570;BME280;60594;50.204;8.844;2022-07-10T08:22:38;100830.38;;;16.24;54.79
72570;BME280;60594;50.204;8.844;2022-07-10T08:25:05;100821.75;;;16.20;55.40
72570;BME280;60594;50.204;8.844;2022-07-10T08:27:31;100829.56;;;16.23;55.37
72570;BME280;60594;50.204;8.844;2022-07-10T08:29:59;100837.88;;;16.30;56.12
72570;BME280;60594;50.204;8.844;2022-07-10T08:32:26;100823.16;;;16.34;56.25
72570;BME280;60594;50.204;8.844;2022-07-10T08:34:53;100818.78;;;16.42;55.03
72570;BME280;60594;50.204;8.844;2022-07-10T08:37:20;100813.94;;;16.36;56.17
72570;BME280;60594;50.204;8.844;2022-07-10T08:39:47;100825.81;;;16.53;55.59
72570;BME280;60594;50.204;8.844;2022-07-10T08:42:15;100827.50;;;16.54;54.93
72570;BME280;60594;50.204;8.844;2022-07-10T08:44:42;100810.97;;;16.39;54.35
72570;BME280;60594;50.204;8.844;2022-07-10T08:47:15;100822.88;;;16.46;54.14
72570;BME280;60594;50.204;8.844;2022-07-10T08:49:46;100840.16;;;16.53;54.32
72570;BME280;60594;50.204;8.844;2022-07-10T08:52:43;100825.81;;;16.53;54.74
72570;BME280;60594;50.204;8.844;2022-07-10T08:55:13;100818.66;;;16.44;54.59
72570;BME280;60594;50.204;8.844;2022-07-10T08:57:41;100836.19;;;16.48;54.52
72570;BME280;60594;50.204;8.844;2022-07-10T09:00:09;100822.44;;;16.41;55.30
72570;BME280;60594;50.204;8.844;2022-07-10T09:02:37;100826.13;;;16.50;55.85
72570;BME280;60594;50.204;8.844;2022-07-10T09:05:04;100841.53;;;16.67;53.48
72570;BME280;60594;50.204;8.844;2022-07-10T09:07:36;100841.09;;;16.71;55.46
72570;BME280;60594;50.204;8.844;2022-07-10T09:10:09;100844.31;;;16.75;54.25
72570;BME280;60594;50.204;8.844;2022-07-10T09:12:55;100839.94;;;16.74;55.33
72570;BME280;60594;50.204;8.844;2022-07-10T09:15:26;100836.25;;;16.75;52.91
72570;BME280;60594;50.204;8.844;2022-07-10T09:20:29;100835.75;;;16.62;54.14
72570;BME280;60594;50.204;8.844;2022-07-10T09:22:57;100828.66;;;16.51;54.46
72570;BME280;60594;50.204;8.844;2022-07-10T09:25:30;100834.59;;;16.64;55.12
72570;BME280;60594;50.204;8.844;2022-07-10T09:27:58;100835.41;;;16.65;55.05
72570;BME280;60594;50.204;8.844;2022-07-10T09:30:36;100832.56;;;16.76;53.91
72570;BME280;60594;50.204;8.844;2022-07-10T09:33:29;100836.25;;;16.75;54.32
72570;BME280;60594;50.204;8.844;2022-07-10T09:36:05;100838.06;;;16.84;54.53
72570;BME280;60594;50.204;8.844;2022-07-10T09:41:12;100826.94;;;16.97;53.81
72570;BME280;60594;50.204;8.844;2022-07-10T09:43:50;100825.94;;;17.07;54.37
72570;BME280;60594;50.204;8.844;2022-07-10T09:46:19;100834.50;;;17.20;54.53
72570;BME280;60594;50.204;8.844;2022-07-10T09:48:46;100822.97;;;17.28;55.82
72570;BME280;60594;50.204;8.844;2022-07-10T09:51:13;100828.59;;;17.44;53.82
72570;BME280;60594;50.204;8.844;2022-07-10T09:53:44;100804.88;;;17.47;53.76
72570;BME280;60594;50.204;8.844;2022-07-10T09:56:12;100819.06;;;17.67;52.19
72570;BME280;60594;50.204;8.844;2022-07-10T09:58:41;100825.00;;;17.88;51.97
72570;BME280;60594;50.204;8.844;2022-07-10T10:01:08;100813.91;;;17.91;51.41
72570;BME280;60594;50.204;8.844;2022-07-10T10:03:39;100813.78;;;17.75;51.78
72570;BME280;60594;50.204;8.844;2022-07-10T10:06:20;100807.97;;;17.52;52.04
72570;BME280;60594;50.204;8.844;2022-07-10T10:09:07;100792.28;;;17.38;52.10
72570;BME280;60594;50.204;8.844;2022-07-10T10:11:35;100790.03;;;17.34;52.26
72570;BME280;60594;50.204;8.844;2022-07-10T10:14:06;100783.94;;;17.14;52.19
72570;BME280;60594;50.204;8.844;2022-07-10T10:16:34;100789.03;;;17.08;54.00
72570;BME280;60594;50.204;8.844;2022-07-10T10:19:02;100790.84;;;17.17;53.59
72570;BME280;60594;50.204;8.844;2022-07-10T10:21:50;100795.19;;;17.27;54.24
72570;BME280;60594;50.204;8.844;2022-07-10T10:24:19;100781.88;;;17.70;54.93
72570;BME280;60594;50.204;8.844;2022-07-10T10:26:46;100774.41;;;18.25;52.85
72570;BME280;60594;50.204;8.844;2022-07-10T10:29:14;100778.56;;;18.62;51.94
72570;BME280;60594;50.204;8.844;2022-07-10T10:31:42;100776.06;;;18.69;48.94
72570;BME280;60594;50.204;8.844;2022-07-10T10:34:12;100771.13;;;18.64;49.86
72570;BME280;60594;50.204;8.844;2022-07-10T10:39:18;100759.44;;;18.89;49.12
72570;BME280;60594;50.204;8.844;2022-07-10T10:41:53;100757.66;;;19.06;47.96
72570;BME280;60594;50.204;8.844;2022-07-10T10:44:21;100758.78;;;19.29;49.27
72570;BME280;60594;50.204;8.844;2022-07-10T10:49:21;100760.50;;;19.30;46.26
72570;BME280;60594;50.204;8.844;2022-07-10T10:52:01;100770.66;;;19.02;46.31
72570;BME280;60594;50.204;8.844;2022-07-10T10:54:31;100772.75;;;18.83;48.50
72570;BME280;60594;50.204;8.844;2022-07-10T10:57:17;100767.22;;;18.92;47.28
72570;BME280;60594;50.204;8.844;2022-07-10T10:59:48;100775.91;;;19.04;47.62
72570;BME280;60594;50.204;8.844;2022-07-10T11:02:25;100770.53;;;19.12;47.42
72570;BME280;60594;50.204;8.844;2022-07-10T11:08:02;100774.41;;;18.76;47.81
72570;BME280;60594;50.204;8.844;2022-07-10T11:13:17;100771.94;;;18.57;48.42
72570;BME280;60594;50.204;8.844;2022-07-10T11:15:45;100776.81;;;18.53;48.93
72570;BME280;60594;50.204;8.844;2022-07-10T11:18:20;100769.44;;;18.63;49.37
72570;BME280;60594;50.204;8.844;2022-07-10T11:20:50;100765.97;;;18.71;49.84
72570;BME280;60594;50.204;8.844;2022-07-10T11:26:10;100755.91;;;18.89;48.17
72570;BME280;60594;50.204;8.844;2022-07-10T11:28:54;100766.25;;;19.01;49.32
72570;BME280;60594;50.204;8.844;2022-07-10T11:31:22;100751.59;;;19.04;48.39
72570;BME280;60594;50.204;8.844;2022-07-10T11:33:51;100751.69;;;19.28;49.48
72570;BME280;60594;50.204;8.844;2022-07-10T11:36:23;100747.47;;;19.41;47.17
72570;BME280;60594;50.204;8.844;2022-07-10T11:39:05;100738.22;;;19.52;46.50
72570;BME280;60594;50.204;8.844;2022-07-10T11:41:33;100747.69;;;19.88;45.15
72570;BME280;60594;50.204;8.844;2022-07-10T11:44:02;100736.06;;;19.87;45.48
72570;BME280;60594;50.204;8.844;2022-07-10T11:46:34;100745.84;;;19.88;44.82
72570;BME280;60594;50.204;8.844;2022-07-10T11:49:04;100727.41;;;19.76;44.63
72570;BME280;60594;50.204;8.844;2022-07-10T11:51:34;100739.09;;;19.68;44.53
72570;BME280;60594;50.204;8.844;2022-07-10T11:56:32;100730.59;;;19.31;47.19
72570;BME280;60594;50.204;8.844;2022-07-10T11:59:01;100721.97;;;19.36;45.48
72570;BME280;60594;50.204;8.844;2022-07-10T12:01:30;100724.34;;;19.55;45.18
72570;BME280;60594;50.204;8.844;2022-07-10T12:04:03;100731.16;;;19.67;45.81
72570;BME280;60594;50.204;8.844;2022-07-10T12:06:33;100716.75;;;19.74;45.45
72570;BME280;60594;50.204;8.844;2022-07-10T12:09:10;100716.09;;;19.80;45.55
72570;BME280;60594;50.204;8.844;2022-07-10T12:11:36;100730.44;;;19.81;46.58
72570;BME280;60594;50.204;8.844;2022-07-10T12:14:10;100735.19;;;19.79;45.11
72570;BME280;60594;50.204;8.844;2022-07-10T12:16:38;100719.63;;;19.65;45.17
72570;BME280;60594;50.204;8.844;2022-07-10T12:19:06;100723.22;;;19.08;46.13
72570;BME280;60594;50.204;8.844;2022-07-10T12:21:32;100718.38;;;19.27;46.13
72570;BME280;60594;50.204;8.844;2022-07-10T12:24:00;100717.91;;;19.32;46.18
72570;BME280;60594;50.204;8.844;2022-07-10T12:26:34;100722.53;;;19.14;46.79
72570;BME280;60594;50.204;8.844;2022-07-10T12:29:02;100706.53;;;19.20;46.50
72570;BME280;60594;50.204;8.844;2022-07-10T12:31:30;100707.09;;;19.32;47.34
72570;BME280;60594;50.204;8.844;2022-07-10T12:34:02;100733.31;;;19.47;47.05
72570;BME280;60594;50.204;8.844;2022-07-10T12:39:35;100731.25;;;19.33;46.26
72570;BME280;60594;50.204;8.844;2022-07-10T12:42:04;100725.19;;;19.31;46.68
72570;BME280;60594;50.204;8.844;2022-07-10T12:44:38;100737.84;;;19.39;45.61
72570;BME280;60594;50.204;8.844;2022-07-10T12:47:11;100734.66;;;19.43;45.44
72570;BME280;60594;50.204;8.844;2022-07-10T12:50:03;100740.88;;;19.44;45.94
72570;BME280;60594;50.204;8.844;2022-07-10T12:52:36;100733.97;;;19.41;46.41
72570;BME280;60594;50.204;8.844;2022-07-10T12:55:33;100724.34;;;19.47;45.91
72570;BME280;60594;50.204;8.844;2022-07-10T12:58:05;100724.66;;;19.44;47.83
72570;BME280;60594;50.204;8.844;2022-07-10T13:00:36;100720.44;;;19.49;45.43
72570;BME280;60594;50.204;8.844;2022-07-10T13:03:18;100720.66;;;19.56;45.94
72570;BME280;60594;50.204;8.844;2022-07-10T13:05:44;100734.34;;;19.62;45.73
72570;BME280;60594;50.204;8.844;2022-07-10T13:08:19;100723.34;;;19.72;45.37
72570;BME280;60594;50.204;8.844;2022-07-10T13:10:58;100714.91;;;19.75;46.02
72570;BME280;60594;50.204;8.844;2022-07-10T13:13:25;100710.00;;;19.78;46.60
72570;BME280;60594;50.204;8.844;2022-07-10T13:15:52;100707.78;;;19.66;46.47
72570;BME280;60594;50.204;8.844;2022-07-10T13:18:25;100696.97;;;19.66;46.32
72570;BME280;60594;50.204;8.844;2022-07-10T13:20:53;100723.53;;;19.94;45.43
72570;BME280;60594;50.204;8.844;2022-07-10T13:23:20;100720.00;;;19.78;45.55